Time;durP1;ratioP1;P1;durP2;ratioP2;P2;SDS_P1;SDS_P2;PMS_P1;PMS_P2;Temp;Humidity;BMP_temperature;BMP_pressure;BME280_temperature;BME280_humidity;BME280_pressure;Samples;Min_cycle;Max_cycle;Signal;HPM_P1;HPM_P2
2022/04/15 00:00:03;;;;;;;9.87;9.07;;;12.40;99.90;;;;;;5078667;28;20205;-75
2022/04/15 00:02:38;;;;;;;10.33;9.33;;;12.30;99.90;;;;;;5077402;28;20193;-75
2022/04/15 00:05:29;;;;;;;11.10;10.10;;;12.30;99.90;;;;;;5073861;28;20292;-75
2022/04/15 00:07:53;;;;;;;10.43;9.23;;;12.30;99.90;;;;;;5072207;28;20200;-75
2022/04/15 00:10:22;;;;;;;11.10;9.57;;;12.20;99.90;;;;;;5075116;28;20205;-77
2022/04/15 00:12:49;;;;;;;11.63;10.43;;;12.20;99.90;;;;;;5077998;28;20739;-77
2022/04/15 00:15:16;;;;;;;11.83;10.63;;;12.20;99.90;;;;;;5080077;28;20218;-77
2022/04/15 00:17:43;;;;;;;10.63;9.73;;;12.20;99.90;;;;;;5078642;28;20193;-77
2022/04/15 00:20:11;;;;;;;11.23;10.23;;;12.10;99.90;;;;;;5079442;28;20660;-77
2022/04/15 00:22:39;;;;;;;10.70;9.70;;;12.20;99.90;;;;;;5093414;28;20289;-77
2022/04/15 00:25:07;;;;;;;10.57;9.57;;;12.10;99.90;;;;;;5081917;28;20232;-77
2022/04/15 00:27:35;;;;;;;10.70;9.70;;;12.10;99.90;;;;;;5076845;28;20202;-77
2022/04/15 00:30:02;;;;;;;10.40;9.40;;;12.10;99.90;;;;;;5077833;28;20288;-77
2022/04/15 00:32:29;;;;;;;9.83;8.97;;;12.10;99.90;;;;;;5079572;28;20266;-77
2022/04/15 00:34:56;;;;;;;10.33;9.33;;;12.00;99.90;;;;;;5078455;28;20665;-77
2022/04/15 00:37:24;;;;;;;9.50;8.60;;;11.90;99.90;;;;;;5081171;28;20200;-77
2022/04/15 00:39:51;;;;;;;9.57;8.67;;;11.90;99.90;;;;;;5076909;28;20606;-77
2022/04/15 00:42:19;;;;;;;9.20;8.40;;;11.90;99.90;;;;;;5082774;28;20222;-77
2022/04/15 00:44:48;;;;;;;9.43;8.60;;;11.80;99.90;;;;;;5081137;28;20217;-77
2022/04/15 00:47:20;;;;;;;11.17;9.63;;;11.80;99.90;;;;;;5080181;28;20624;-77
2022/04/15 00:49:47;;;;;;;7.63;6.13;;;11.80;99.90;;;;;;5080249;28;20209;-77
2022/04/15 00:52:18;;;;;;;9.30;6.60;;;11.80;99.90;;;;;;5080895;28;20239;-77
2022/04/15 00:54:49;;;;;;;8.70;5.83;;;11.90;99.90;;;;;;5075528;28;20319;-77
2022/04/15 00:57:22;;;;;;;8.17;5.50;;;11.90;99.90;;;;;;5078054;28;20270;-77
2022/04/15 00:59:52;;;;;;;6.87;5.60;;;11.90;99.90;;;;;;5088130;28;20211;-78
2022/04/15 01:02:20;;;;;;;9.20;5.90;;;11.90;99.90;;;;;;5084968;28;20666;-77
2022/04/15 01:04:49;;;;;;;8.03;5.20;;;11.80;99.90;;;;;;5077147;28;20696;-78
2022/04/15 01:07:20;;;;;;;6.20;5.10;;;11.80;99.90;;;;;;5080730;28;20700;-77
2022/04/15 01:09:51;;;;;;;5.63;4.67;;;11.80;99.90;;;;;;5083002;28;20197;-77
2022/04/15 01:12:21;;;;;;;7.03;4.67;;;11.80;99.90;;;;;;5083622;28;20249;-77
2022/04/15 01:14:51;;;;;;;5.67;4.50;;;11.80;99.90;;;;;;5085973;28;20212;-77
2022/04/15 01:17:18;;;;;;;5.30;4.63;;;11.80;99.90;;;;;;5084921;28;20643;-77
2022/04/15 01:19:45;;;;;;;9.87;8.97;;;11.70;99.90;;;;;;5079932;28;20202;-77
2022/04/15 01:22:16;;;;;;;7.90;5.87;;;11.70;99.90;;;;;;5077814;28;20291;-77
2022/04/15 01:24:44;;;;;;;6.83;5.80;;;11.70;99.90;;;;;;5085888;28;20298;-77
2022/04/15 01:27:11;;;;;;;6.40;5.50;;;11.60;99.90;;;;;;5081116;28;20201;-77
2022/04/15 01:29:38;;;;;;;6.53;5.43;;;11.60;99.90;;;;;;5085397;28;20196;-77
2022/04/15 01:32:07;;;;;;;5.57;4.97;;;11.60;99.90;;;;;;5082523;28;20297;-77
2022/04/15 01:34:34;;;;;;;6.63;5.30;;;11.50;99.90;;;;;;5079878;28;20236;-77
2022/04/15 01:37:02;;;;;;;7.60;5.17;;;11.40;99.90;;;;;;5077069;28;20206;-77
2022/04/15 01:39:31;;;;;;;8.23;5.73;;;11.40;99.90;;;;;;5078728;28;20205;-77
2022/04/15 01:41:59;;;;;;;9.13;5.87;;;11.30;99.90;;;;;;5080326;28;20196;-77
2022/04/15 01:44:26;;;;;;;7.93;6.97;;;11.20;99.90;;;;;;5082345;28;20229;-77
2022/04/15 01:46:53;;;;;;;10.07;6.93;;;11.20;99.90;;;;;;5081798;28;20223;-77
2022/04/15 01:49:20;;;;;;;9.00;8.10;;;11.10;99.90;;;;;;5074358;28;20210;-77
2022/04/15 01:51:47;;;;;;;8.77;7.20;;;11.10;99.90;;;;;;5077800;28;20283;-77
2022/04/15 01:54:14;;;;;;;7.00;6.30;;;11.00;99.90;;;;;;5079010;28;20232;-77
2022/04/15 01:56:41;;;;;;;7.93;7.13;;;11.00;99.90;;;;;;5066821;28;20247;-77
2022/04/15 01:59:09;;;;;;;7.70;7.00;;;11.00;99.90;;;;;;5075672;28;20215;-76
2022/04/15 02:01:37;;;;;;;7.27;6.50;;;10.90;99.90;;;;;;5073817;28;20269;-77
2022/04/15 02:04:04;;;;;;;6.83;5.83;;;10.90;99.90;;;;;;5081757;28;20204;-77
2022/04/15 02:06:32;;;;;;;10.63;7.93;;;10.80;99.90;;;;;;5081633;28;20294;-77
2022/04/15 02:08:59;;;;;;;8.50;7.50;;;10.80;99.90;;;;;;5077720;28;20194;-78
2022/04/15 02:11:26;;;;;;;7.43;6.73;;;10.80;99.90;;;;;;5078827;28;20204;-78
2022/04/15 02:13:52;;;;;;;6.97;6.27;;;10.80;99.90;;;;;;5080480;28;20225;-77
2022/04/15 02:16:21;;;;;;;5.80;5.20;;;10.80;99.90;;;;;;5082333;28;20203;-77
2022/04/15 02:18:48;;;;;;;6.63;5.53;;;10.80;99.90;;;;;;5080630;28;20211;-77
2022/04/15 02:21:15;;;;;;;8.77;7.00;;;10.80;99.90;;;;;;5074570;28;20214;-77
2022/04/15 02:23:42;;;;;;;6.57;5.67;;;10.80;99.90;;;;;;5069864;28;20214;-77
2022/04/15 02:26:09;;;;;;;7.80;6.03;;;10.70;99.90;;;;;;5084754;28;20680;-77
2022/04/15 02:28:36;;;;;;;9.07;7.60;;;10.70;99.90;;;;;;5080511;28;20199;-77
2022/04/15 02:31:03;;;;;;;7.90;7.10;;;10.70;99.90;;;;;;5080627;28;20234;-77
2022/04/15 02:33:31;;;;;;;9.00;7.20;;;10.70;99.90;;;;;;5083705;28;20322;-77
2022/04/15 02:35:58;;;;;;;7.67;6.80;;;10.70;99.90;;;;;;5076020;28;20729;-76
2022/04/15 02:38:25;;;;;;;7.67;6.30;;;10.70;99.90;;;;;;5076152;28;20291;-77
2022/04/15 02:40:52;;;;;;;7.23;6.37;;;10.70;99.90;;;;;;5072867;28;20288;-77
2022/04/15 02:43:20;;;;;;;7.00;6.27;;;10.80;99.90;;;;;;5076479;28;20246;-77
2022/04/15 02:45:47;;;;;;;7.40;6.60;;;10.80;99.90;;;;;;5077646;28;20293;-77
2022/04/15 02:48:14;;;;;;;10.80;6.90;;;10.80;99.90;;;;;;5073812;28;20217;-78
2022/04/15 02:50:43;;;;;;;10.97;6.97;;;10.90;99.90;;;;;;5073296;28;20647;-78
2022/04/15 02:53:10;;;;;;;7.73;6.57;;;10.80;99.90;;;;;;5071809;28;20218;-78
2022/04/15 02:55:37;;;;;;;7.27;5.67;;;10.80;99.90;;;;;;5066392;28;20722;-79
2022/04/15 02:58:04;;;;;;;8.23;6.00;;;10.90;99.90;;;;;;5071809;28;20680;-78
2022/04/15 03:00:31;;;;;;;7.20;5.80;;;10.80;99.90;;;;;;5069849;28;20233;-76
2022/04/15 03:02:58;;;;;;;6.20;5.13;;;10.90;99.90;;;;;;5068554;28;20215;-77
2022/04/15 03:05:25;;;;;;;7.80;6.63;;;10.90;99.90;;;;;;5071843;28;20290;-78
2022/04/15 03:07:53;;;;;;;5.77;4.80;;;10.90;99.90;;;;;;5070861;28;20209;-77
2022/04/15 03:10:20;;;;;;;7.03;5.47;;;10.90;99.90;;;;;;5071843;28;20201;-78
2022/04/15 03:12:47;;;;;;;5.50;5.00;;;11.00;99.90;;;;;;5079611;28;20279;-78
2022/04/15 03:15:14;;;;;;;7.87;6.50;;;11.00;99.90;;;;;;5079760;28;20725;-78
2022/04/15 03:17:41;;;;;;;6.40;5.20;;;11.00;99.90;;;;;;5073027;28;20197;-78
2022/04/15 03:20:10;;;;;;;7.83;5.27;;;11.10;99.90;;;;;;5076580;28;20287;-78
2022/04/15 03:22:37;;;;;;;7.13;5.73;;;11.10;99.90;;;;;;5079439;28;20594;-78
2022/04/15 03:25:08;;;;;;;5.97;5.10;;;11.10;99.90;;;;;;5079828;28;20193;-78
2022/04/15 03:27:35;;;;;;;6.27;5.50;;;11.10;99.90;;;;;;5072710;28;20209;-79
2022/04/15 03:30:02;;;;;;;5.33;4.83;;;11.10;99.90;;;;;;5070133;28;20286;-78
2022/04/15 03:32:30;;;;;;;8.13;5.33;;;11.10;99.90;;;;;;5079503;28;20207;-79
2022/04/15 03:34:57;;;;;;;8.67;5.60;;;11.00;99.90;;;;;;5078169;28;20229;-79
2022/04/15 03:37:25;;;;;;;8.07;6.53;;;11.00;99.90;;;;;;5078357;28;20282;-79
2022/04/15 03:39:52;;;;;;;7.53;6.53;;;10.90;99.90;;;;;;5080639;28;20662;-80
2022/04/15 03:42:21;;;;;;;9.27;6.30;;;10.80;99.90;;;;;;5081362;28;20200;-81
2022/04/15 03:44:48;;;;;;;6.23;5.30;;;10.70;99.90;;;;;;5070527;28;20205;-82
2022/04/15 03:47:16;;;;;;;7.57;6.00;;;10.70;99.90;;;;;;5070511;28;20285;-79
2022/04/15 03:49:45;;;;;;;6.60;5.43;;;10.70;99.90;;;;;;5078611;28;20191;-78
2022/04/15 03:52:12;;;;;;;9.77;6.57;;;10.70;99.90;;;;;;5079082;28;20195;-78
2022/04/15 03:54:40;;;;;;;7.63;6.13;;;10.60;99.90;;;;;;5082562;28;20224;-78
2022/04/15 03:57:07;;;;;;;6.40;5.23;;;10.60;99.90;;;;;;5079341;28;20281;-80
2022/04/15 03:59:35;;;;;;;6.60;5.47;;;10.50;99.90;;;;;;5078951;28;20198;-78
2022/04/15 04:02:02;;;;;;;7.13;6.10;;;10.50;99.90;;;;;;5076030;28;20201;-79
2022/04/15 04:04:29;;;;;;;6.27;5.67;;;10.40;99.90;;;;;;5076399;28;20230;-79
2022/04/15 04:06:56;;;;;;;6.80;5.97;;;10.40;99.90;;;;;;5082596;28;20200;-78
2022/04/15 04:09:23;;;;;;;8.77;6.07;;;10.20;99.90;;;;;;5082998;28;20658;-78
2022/04/15 04:11:50;;;;;;;6.97;5.93;;;10.20;99.90;;;;;;5082012;28;20294;-77
2022/04/15 04:14:17;;;;;;;7.23;5.37;;;10.20;99.90;;;;;;5088126;28;20245;-78
2022/04/15 04:16:45;;;;;;;6.50;5.07;;;10.10;99.90;;;;;;5090464;28;20194;-77
2022/04/15 04:19:12;;;;;;;6.17;5.10;;;10.00;99.90;;;;;;5082997;28;20631;-77
2022/04/15 04:21:39;;;;;;;7.30;6.60;;;10.00;99.90;;;;;;5075212;28;20256;-78
2022/04/15 04:24:07;;;;;;;7.60;6.67;;;9.90;99.90;;;;;;5079586;28;20206;-78
2022/04/15 04:26:34;;;;;;;6.50;5.77;;;9.90;99.90;;;;;;5079416;28;20194;-78
2022/04/15 04:29:01;;;;;;;7.30;6.60;;;9.90;99.90;;;;;;5079710;28;20298;-78
2022/04/15 04:31:27;;;;;;;6.00;5.40;;;9.90;99.90;;;;;;5084643;28;20203;-78
2022/04/15 04:33:56;;;;;;;5.00;4.50;;;9.90;99.90;;;;;;5083949;28;20222;-78
2022/04/15 04:36:23;;;;;;;6.63;6.00;;;9.80;99.90;;;;;;5079455;28;20212;-78
2022/04/15 04:38:50;;;;;;;6.40;5.87;;;9.80;99.90;;;;;;5076172;28;20194;-78
2022/04/15 04:41:17;;;;;;;7.47;6.70;;;9.80;99.90;;;;;;5087479;28;20194;-78
2022/04/15 04:43:44;;;;;;;7.23;6.53;;;9.80;99.90;;;;;;5083931;28;20282;-78
2022/04/15 04:46:10;;;;;;;7.93;7.13;;;9.80;99.90;;;;;;5084246;28;20282;-78
2022/04/15 04:48:37;;;;;;;7.10;6.47;;;9.80;99.90;;;;;;5080115;28;20221;-80
2022/04/15 04:51:06;;;;;;;8.33;7.50;;;9.80;99.90;;;;;;5081727;28;20194;-78
2022/04/15 04:53:33;;;;;;;14.83;7.27;;;9.80;99.90;;;;;;5086643;28;20213;-76
2022/04/15 04:56:00;;;;;;;8.20;7.40;;;9.90;99.90;;;;;;5081855;28;20569;-78
2022/04/15 04:58:27;;;;;;;7.47;6.67;;;9.90;99.90;;;;;;5082595;28;20288;-78
2022/04/15 05:00:54;;;;;;;6.90;6.30;;;10.00;99.90;;;;;;5087255;28;20193;-77
2022/04/15 05:03:21;;;;;;;7.10;6.23;;;10.10;99.90;;;;;;5081983;28;20242;-78
2022/04/15 05:05:48;;;;;;;6.20;5.70;;;10.20;99.90;;;;;;5085100;28;20724;-78
2022/04/15 05:08:16;;;;;;;5.87;5.37;;;10.20;99.90;;;;;;5084167;28;20186;-78
2022/04/15 05:10:43;;;;;;;5.87;5.27;;;10.30;99.90;;;;;;5084439;28;20204;-78
2022/04/15 05:13:10;;;;;;;6.47;5.63;;;10.30;99.90;;;;;;5078332;28;20317;-78
2022/04/15 05:15:37;;;;;;;6.03;5.50;;;10.40;99.90;;;;;;5063813;28;20206;-78
2022/04/15 05:18:04;;;;;;;6.00;5.50;;;10.50;99.90;;;;;;5083539;28;20226;-82
2022/04/15 05:20:32;;;;;;;7.07;5.93;;;10.60;99.90;;;;;;5087241;28;20300;-78
2022/04/15 05:22:59;;;;;;;6.90;6.20;;;10.70;99.90;;;;;;5084158;28;20212;-78
2022/04/15 05:25:28;;;;;;;7.00;5.80;;;10.80;99.90;;;;;;5072047;28;20727;-79
2022/04/15 05:27:58;;;;;;;6.43;5.80;;;10.90;99.90;;;;;;5075114;28;20191;-81
2022/04/15 05:30:25;;;;;;;5.63;5.13;;;11.00;99.90;;;;;;5078097;28;20693;-80
2022/04/15 05:32:52;;;;;;;6.50;5.90;;;11.20;99.90;;;;;;5075451;28;20311;-80
2022/04/15 05:35:19;;;;;;;5.80;4.83;;;11.40;99.90;;;;;;5078595;28;20230;-80
2022/04/15 05:37:46;;;;;;;8.40;5.77;;;11.70;99.90;;;;;;5087190;28;20199;-80
2022/04/15 05:40:13;;;;;;;6.90;5.07;;;11.80;99.90;;;;;;5085548;28;20214;-79
2022/04/15 05:42:41;;;;;;;8.20;5.50;;;12.00;99.90;;;;;;5086371;28;20192;-80
2022/04/15 05:45:09;;;;;;;7.20;6.50;;;12.10;99.90;;;;;;5086634;28;20738;-79
2022/04/15 05:47:38;;;;;;;7.20;6.43;;;12.30;99.90;;;;;;5081007;28;20196;-81
2022/04/15 05:50:05;;;;;;;6.50;5.77;;;12.40;99.90;;;;;;5094087;28;20236;-80
2022/04/15 05:52:33;;;;;;;6.70;5.20;;;12.40;99.90;;;;;;5085301;28;20205;-78
2022/04/15 05:55:00;;;;;;;6.33;5.37;;;12.50;99.90;;;;;;5078476;28;20248;-78
2022/04/15 05:57:27;;;;;;;6.30;5.63;;;12.70;99.90;;;;;;5076604;28;20198;-79
2022/04/15 05:59:56;;;;;;;5.87;5.27;;;12.70;99.90;;;;;;5075759;28;20274;-80
2022/04/15 06:02:24;;;;;;;7.83;6.63;;;12.80;99.90;;;;;;5062527;28;20343;-78
2022/04/15 06:04:51;;;;;;;7.37;6.27;;;12.90;99.90;;;;;;5060610;28;20282;-79
2022/04/15 06:07:19;;;;;;;7.10;5.90;;;13.00;99.90;;;;;;5080698;28;20653;-81
2022/04/15 06:09:47;;;;;;;6.87;5.60;;;13.10;99.90;;;;;;5084720;28;20278;-81
2022/04/15 06:12:15;;;;;;;7.23;5.97;;;13.20;99.90;;;;;;5082680;28;20281;-80
2022/04/15 06:14:45;;;;;;;7.30;5.23;;;13.30;99.90;;;;;;5082619;28;20296;-80
2022/04/15 06:17:16;;;;;;;7.73;6.13;;;13.60;99.90;;;;;;5075574;28;20554;-78
2022/04/15 06:19:43;;;;;;;6.70;5.40;;;13.80;99.90;;;;;;5071990;28;20205;-77
2022/04/15 06:22:10;;;;;;;5.70;5.10;;;14.10;99.90;;;;;;5070171;28;20209;-77
2022/04/15 06:24:37;;;;;;;5.87;4.83;;;14.50;99.90;;;;;;5067353;28;20662;-77
2022/04/15 06:27:04;;;;;;;6.27;4.53;;;14.60;99.90;;;;;;5071282;28;20208;-77
2022/04/15 06:29:31;;;;;;;5.93;4.47;;;14.70;99.90;;;;;;5067893;28;20296;-78
2022/04/15 06:31:58;;;;;;;5.73;4.50;;;14.60;99.90;;;;;;5071425;28;20206;-77
2022/04/15 06:34:27;;;;;;;6.80;5.37;;;14.60;99.90;;;;;;5081555;28;20323;-77
2022/04/15 06:36:54;;;;;;;6.60;5.37;;;14.70;99.90;;;;;;5076962;28;20563;-78
2022/04/15 06:39:21;;;;;;;8.10;5.43;;;14.90;99.90;;;;;;5089041;28;20238;-78
2022/04/15 06:41:48;;;;;;;8.03;5.63;;;15.00;99.90;;;;;;5074659;28;20222;-78
2022/04/15 06:44:18;;;;;;;7.70;6.30;;;15.20;99.90;;;;;;5086420;28;20213;-78
2022/04/15 06:46:45;;;;;;;8.97;7.23;;;15.40;99.90;;;;;;5076603;28;20280;-77
2022/04/15 06:49:12;;;;;;;7.67;6.33;;;15.30;99.90;;;;;;5088299;28;20201;-76
2022/04/15 06:51:40;;;;;;;9.63;6.70;;;15.50;99.90;;;;;;5077142;28;20298;-77
2022/04/15 06:54:07;;;;;;;6.67;5.97;;;15.60;99.90;;;;;;5078014;28;20301;-76
2022/04/15 06:56:34;;;;;;;7.97;5.00;;;15.90;99.90;;;;;;5089859;28;20371;-76
2022/04/15 06:59:01;;;;;;;7.33;5.47;;;16.00;99.90;;;;;;5080329;28;20227;-77
2022/04/15 07:01:29;;;;;;;7.37;6.57;;;16.20;99.90;;;;;;5087400;28;20225;-77
2022/04/15 07:03:56;;;;;;;7.77;6.90;;;16.20;99.90;;;;;;5064085;28;20233;-78
2022/04/15 07:06:23;;;;;;;6.57;5.40;;;16.30;99.90;;;;;;5069351;28;20226;-76
2022/04/15 07:08:51;;;;;;;7.97;6.30;;;16.50;99.90;;;;;;5071193;28;20201;-77
2022/04/15 07:11:21;;;;;;;8.57;7.77;;;16.80;99.90;;;;;;5080122;28;20199;-77
2022/04/15 07:13:48;;;;;;;7.30;5.60;;;17.00;99.90;;;;;;5080633;28;20213;-77
2022/04/15 07:16:15;;;;;;;7.93;6.50;;;17.20;99.90;;;;;;5080103;28;20222;-77
2022/04/15 07:18:42;;;;;;;6.33;5.60;;;17.50;99.90;;;;;;5086441;28;20209;-77
2022/04/15 07:21:11;;;;;;;5.30;4.77;;;18.00;99.90;;;;;;5068738;28;20202;-74
2022/04/15 07:23:38;;;;;;;8.23;5.90;;;18.40;99.90;;;;;;5066769;28;20217;-75
2022/04/15 07:26:06;;;;;;;8.90;5.80;;;18.60;99.90;;;;;;5080828;28;20202;-75
2022/04/15 07:28:33;;;;;;;8.97;6.17;;;18.90;99.90;;;;;;5082213;28;20209;-74
2022/04/15 07:31:00;;;;;;;7.63;5.87;;;19.20;99.90;;;;;;5082443;28;20291;-75
2022/04/15 07:33:27;;;;;;;6.03;5.20;;;19.70;99.90;;;;;;5083520;28;20784;-76
2022/04/15 07:35:54;;;;;;;7.30;5.37;;;19.80;99.90;;;;;;5091679;28;20225;-77
2022/04/15 07:38:22;;;;;;;8.10;6.30;;;20.10;99.90;;;;;;5079014;28;20206;-77
2022/04/15 07:40:50;;;;;;;6.87;5.47;;;20.20;99.90;;;;;;5077528;28;20222;-78
2022/04/15 07:43:19;;;;;;;7.43;5.43;;;20.50;99.90;;;;;;5079278;28;20264;-77
2022/04/15 07:45:52;;;;;;;6.80;5.47;;;20.60;99.90;;;;;;5078492;28;20275;-77
2022/04/15 07:48:21;;;;;;;8.57;5.63;;;20.80;99.90;;;;;;5082125;28;20191;-77
2022/04/15 07:50:49;;;;;;;8.77;6.30;;;21.00;99.90;;;;;;5081360;28;20698;-79
2022/04/15 07:53:16;;;;;;;6.80;6.07;;;20.80;99.90;;;;;;5085591;28;20210;-81
2022/04/15 07:55:43;;;;;;;8.70;5.57;;;20.70;99.90;;;;;;5071960;28;20304;-79
2022/04/15 07:58:11;;;;;;;5.43;4.37;;;21.10;99.90;;;;;;5082161;28;20203;-78
2022/04/15 08:00:39;;;;;;;8.97;5.80;;;21.20;99.90;;;;;;5096029;28;20195;-77
2022/04/15 08:03:09;;;;;;;9.00;6.10;;;21.20;99.90;;;;;;5073041;28;20236;-79
2022/04/15 08:05:36;;;;;;;6.07;5.27;;;21.50;99.90;;;;;;5067425;28;20200;-81
2022/04/15 08:08:04;;;;;;;6.83;6.13;;;21.70;99.90;;;;;;5078225;28;20203;-79
2022/04/15 08:10:31;;;;;;;10.17;7.83;;;21.80;99.90;;;;;;5086374;28;20226;-76
2022/04/15 08:12:58;;;;;;;9.20;8.30;;;21.50;99.90;;;;;;5061410;28;20218;-81
2022/04/15 08:15:25;;;;;;;8.77;7.13;;;21.40;99.90;;;;;;5079818;28;20206;-78
2022/04/15 08:17:53;;;;;;;8.20;7.40;;;21.50;99.90;;;;;;5068729;28;20202;-77
2022/04/15 08:20:20;;;;;;;9.23;8.33;;;21.50;99.90;;;;;;5071792;28;20206;-81
2022/04/15 08:22:50;;;;;;;10.80;9.70;;;21.20;99.90;;;;;;5079330;28;20245;-77
2022/04/15 08:25:19;;;;;;;10.17;8.87;;;21.10;99.90;;;;;;5073715;28;20218;-77
2022/04/15 08:27:46;;;;;;;11.10;10.00;;;21.40;99.90;;;;;;5074973;28;20285;-78
2022/04/15 08:30:14;;;;;;;11.97;10.73;;;21.50;99.90;;;;;;5071837;28;20195;-78
2022/04/15 08:32:41;;;;;;;11.57;8.53;;;21.30;99.90;;;;;;5083881;28;20578;-78
2022/04/15 08:35:12;;;;;;;11.23;8.10;;;21.40;99.90;;;;;;5077458;28;20228;-80
2022/04/15 08:37:40;;;;;;;9.80;8.80;;;21.80;99.90;;;;;;5074817;28;20197;-78
2022/04/15 08:40:08;;;;;;;10.57;7.73;;;21.80;99.90;;;;;;5079944;28;20198;-78
2022/04/15 08:42:36;;;;;;;9.63;7.13;;;21.50;99.90;;;;;;5078499;28;20655;-77
2022/04/15 08:45:03;;;;;;;6.93;6.10;;;21.30;99.90;;;;;;5079127;28;20693;-77
2022/04/15 08:47:31;;;;;;;9.43;6.97;;;21.40;99.90;;;;;;5079573;28;20212;-78
2022/04/15 08:50:00;;;;;;;9.47;8.20;;;21.10;99.90;;;;;;5072168;28;20718;-82
2022/04/15 08:52:29;;;;;;;10.77;9.70;;;21.20;99.90;;;;;;5070889;28;20286;-79
2022/04/15 08:54:58;;;;;;;10.07;9.13;;;21.20;99.90;;;;;;5069352;28;20242;-77
2022/04/15 08:57:26;;;;;;;10.73;9.80;;;20.80;99.90;;;;;;5070302;28;20202;-79
2022/04/15 08:59:54;;;;;;;12.90;9.23;;;21.00;99.90;;;;;;5079166;28;20202;-80
2022/04/15 09:02:32;;;;;;;8.93;8.13;;;21.30;99.90;;;;;;5080052;28;20301;-76
2022/04/15 09:05:00;;;;;;;9.10;8.27;;;21.50;99.90;;;;;;5079675;28;20279;-77
2022/04/15 09:07:30;;;;;;;8.30;7.50;;;21.70;99.90;;;;;;5087152;28;20232;-77
2022/04/15 09:10:01;;;;;;;11.53;9.00;;;21.70;99.90;;;;;;5084845;28;20201;-76
2022/04/15 09:12:31;;;;;;;7.73;6.93;;;22.00;99.90;;;;;;5082156;28;20202;-78
2022/04/15 09:15:03;;;;;;;6.93;6.23;;;22.20;99.90;;;;;;5079450;28;20197;-79
2022/04/15 09:17:30;;;;;;;9.73;8.73;;;22.30;99.90;;;;;;5078986;28;20293;-76
2022/04/15 09:20:00;;;;;;;8.87;7.97;;;22.20;99.90;;;;;;5084380;28;20194;-79
2022/04/15 09:22:29;;;;;;;6.50;5.80;;;22.10;99.90;;;;;;5084715;28;20195;-80
2022/04/15 09:24:58;;;;;;;9.27;7.67;;;22.50;99.90;;;;;;5084913;28;20264;-77
2022/04/15 09:27:26;;;;;;;9.50;7.90;;;22.70;99.90;;;;;;5075925;28;20290;-77
2022/04/15 09:29:54;;;;;;;10.17;8.60;;;22.90;99.90;;;;;;5082246;28;20271;-76
2022/04/15 09:32:26;;;;;;;8.17;5.80;;;23.00;99.90;;;;;;5085921;28;20203;-79
2022/04/15 09:34:54;;;;;;;9.70;7.33;;;23.00;99.90;;;;;;5088001;28;20244;-77
2022/04/15 09:37:22;;;;;;;7.50;6.57;;;23.00;99.90;;;;;;5082034;28;20222;-79
2022/04/15 09:40:09;;;;;;;7.90;6.37;;;22.50;99.90;;;;;;5076428;28;20276;-80
2022/04/15 09:42:37;;;;;;;6.90;5.57;;;22.20;99.90;;;;;;5074451;28;20214;-78
2022/04/15 09:45:14;;;;;;;5.67;4.80;;;22.60;99.90;;;;;;5085121;28;20201;-78
2022/04/15 09:47:42;;;;;;;7.93;7.13;;;22.70;99.90;;;;;;5074964;28;20198;-78
2022/04/15 09:50:22;;;;;;;7.20;6.50;;;22.70;99.90;;;;;;5088542;28;20190;-78
2022/04/15 09:52:51;;;;;;;8.00;6.83;;;22.70;99.90;;;;;;5069272;28;20225;-78
2022/04/15 09:55:21;;;;;;;7.77;6.97;;;22.80;99.90;;;;;;5079129;28;20296;-76
2022/04/15 09:57:49;;;;;;;8.73;7.93;;;22.60;99.90;;;;;;5081931;28;20604;-78
2022/04/15 10:00:20;;;;;;;7.10;6.40;;;22.60;99.90;;;;;;5083016;28;20205;-79
2022/04/15 10:02:49;;;;;;;7.03;6.33;;;22.50;99.90;;;;;;5076171;28;20223;-79
2022/04/15 10:05:20;;;;;;;6.60;5.90;;;22.70;99.90;;;;;;5084129;28;20190;-78
2022/04/15 10:07:49;;;;;;;8.17;6.80;;;22.90;99.90;;;;;;5083851;28;20561;-79
2022/04/15 10:10:16;;;;;;;8.80;7.13;;;23.10;99.90;;;;;;5084372;28;20197;-78
2022/04/15 10:12:45;;;;;;;8.07;7.27;;;22.90;99.90;;;;;;5082669;28;20194;-80
2022/04/15 10:15:12;;;;;;;7.80;7.00;;;22.70;99.90;;;;;;5080032;28;20198;-84
2022/04/15 10:17:43;;;;;;;9.60;8.50;;;22.40;99.90;;;;;;5085312;28;20200;-80
2022/04/15 10:20:10;;;;;;;9.80;8.87;;;22.30;99.90;;;;;;5081541;28;20190;-82
2022/04/15 10:22:40;;;;;;;7.50;6.13;;;21.60;99.90;;;;;;5091711;28;20209;-81
2022/04/15 10:25:10;;;;;;;6.17;5.43;;;21.30;99.90;;;;;;5086741;28;20275;-79
2022/04/15 10:27:37;;;;;;;8.37;7.57;;;21.10;99.90;;;;;;5068701;28;20662;-78
2022/04/15 10:30:18;;;;;;;9.97;9.07;;;21.20;99.90;;;;;;5084007;28;20650;-79
2022/04/15 10:32:52;;;;;;;8.67;7.77;;;21.20;99.90;;;;;;5067926;28;20796;-80
2022/04/15 10:35:28;;;;;;;7.87;7.07;;;21.00;99.90;;;;;;5072226;28;20222;-81
2022/04/15 10:37:58;;;;;;;5.23;4.17;;;21.10;99.90;;;;;;5078553;28;20233;-82
2022/04/15 10:40:27;;;;;;;6.63;5.30;;;21.40;99.90;;;;;;5079551;28;20203;-80
2022/04/15 10:42:54;;;;;;;5.53;4.50;;;21.50;99.90;;;;;;5080392;28;20583;-79
2022/04/15 10:45:35;;;;;;;6.77;5.20;;;21.60;99.90;;;;;;5081832;28;20219;-78
2022/04/15 10:48:04;;;;;;;6.77;5.67;;;21.70;99.90;;;;;;5069144;28;20229;-79
2022/04/15 10:50:33;;;;;;;6.30;5.40;;;21.50;99.90;;;;;;5074389;28;20765;-79
2022/04/15 10:53:30;;;;;;;6.57;5.07;;;21.40;99.90;;;;;;5083809;28;20228;-83
2022/04/15 10:56:08;;;;;;;7.37;5.63;;;21.60;99.90;;;;;;5070278;28;20221;-83
2022/04/15 11:01:33;;;;;;;7.97;6.63;;;21.20;99.90;;;;;;5077651;28;20338;-84
2022/04/15 11:04:04;;;;;;;7.57;6.53;;;21.20;99.90;;;;;;5076780;28;20267;-83
2022/04/15 11:06:31;;;;;;;9.70;8.67;;;21.10;99.90;;;;;;5078381;28;20194;-80
2022/04/15 11:09:13;;;;;;;7.03;6.33;;;21.00;99.90;;;;;;5079836;28;20195;-82
2022/04/15 11:11:42;;;;;;;6.40;5.80;;;21.10;99.90;;;;;;5072100;28;20225;-80
2022/04/15 11:14:13;;;;;;;5.77;5.03;;;21.10;99.90;;;;;;5080773;28;20214;-79
2022/04/15 11:16:48;;;;;;;8.83;6.20;;;21.10;99.90;;;;;;5068117;28;20244;-80
2022/04/15 11:19:23;;;;;;;7.13;6.40;;;21.00;99.90;;;;;;5071869;28;20290;-78
2022/04/15 11:21:53;;;;;;;8.53;7.77;;;21.00;99.90;;;;;;5074053;28;20237;-78
2022/04/15 11:24:25;;;;;;;10.57;9.30;;;20.90;99.90;;;;;;5069504;28;20284;-80
2022/04/15 11:26:58;;;;;;;11.33;10.23;;;20.50;99.90;;;;;;5077092;28;20530;-78
2022/04/15 11:29:29;;;;;;;9.80;8.90;;;20.40;99.90;;;;;;5078317;28;20256;-77
2022/04/15 11:32:01;;;;;;;10.27;9.37;;;20.30;99.90;;;;;;5079116;28;20194;-77
2022/04/15 11:34:28;;;;;;;9.17;8.20;;;20.50;99.90;;;;;;5081546;28;20276;-79
2022/04/15 11:36:56;;;;;;;9.17;8.27;;;20.60;99.90;;;;;;5079616;28;20297;-78
2022/04/15 11:39:25;;;;;;;12.67;11.47;;;20.70;99.90;;;;;;5072817;28;20198;-78
2022/04/15 11:41:54;;;;;;;9.03;8.23;;;20.80;99.90;;;;;;5077049;28;20692;-78
2022/04/15 11:44:23;;;;;;;11.10;10.00;;;20.70;99.90;;;;;;5066185;28;20655;-78
2022/04/15 11:46:52;;;;;;;9.37;8.47;;;20.50;99.90;;;;;;5083400;28;20200;-77
2022/04/15 11:49:22;;;;;;;7.60;6.90;;;20.50;99.90;;;;;;5078761;28;20659;-78
2022/04/15 11:51:50;;;;;;;6.97;6.33;;;20.60;99.90;;;;;;5080590;28;20300;-78
2022/04/15 11:54:21;;;;;;;7.53;6.83;;;20.80;99.90;;;;;;5079927;28;20213;-77
2022/04/15 11:56:49;;;;;;;5.57;5.07;;;20.90;99.90;;;;;;5076150;28;20221;-81
2022/04/15 11:59:17;;;;;;;5.53;5.13;;;21.10;99.90;;;;;;5079852;28;20198;-79
2022/04/15 12:01:44;;;;;;;5.70;4.80;;;21.40;99.90;;;;;;5074380;28;20202;-81
2022/04/15 12:04:12;;;;;;;7.17;6.03;;;21.30;99.90;;;;;;5076818;28;20220;-80
2022/04/15 12:06:41;;;;;;;7.10;6.43;;;21.30;99.90;;;;;;5081045;28;20248;-78
2022/04/15 12:09:14;;;;;;;6.83;6.23;;;21.00;99.90;;;;;;5079726;28;20190;-79
2022/04/15 12:11:41;;;;;;;7.70;7.00;;;21.00;99.90;;;;;;5076788;28;20198;-77
2022/04/15 12:14:09;;;;;;;7.00;6.40;;;20.50;99.90;;;;;;5082732;28;20300;-78
2022/04/15 12:16:40;;;;;;;6.67;6.10;;;20.50;99.90;;;;;;5066250;28;20206;-77
2022/04/15 12:19:10;;;;;;;6.23;5.73;;;20.40;99.90;;;;;;5082523;28;20213;-77
2022/04/15 12:21:39;;;;;;;7.20;6.00;;;20.40;99.90;;;;;;5069160;28;20284;-79
2022/04/15 12:24:09;;;;;;;5.80;5.30;;;20.50;99.90;;;;;;5076570;28;20218;-81
2022/04/15 12:26:44;;;;;;;6.97;6.20;;;20.50;99.90;;;;;;5081260;28;20634;-80
2022/04/15 12:32:15;;;;;;;6.90;6.30;;;20.70;99.90;;;;;;5073483;28;20245;-77
2022/04/15 12:34:43;;;;;;;10.00;6.80;;;20.60;99.90;;;;;;5072380;28;20214;-81
2022/04/15 12:37:34;;;;;;;7.70;7.00;;;20.70;99.90;;;;;;5071482;28;20239;-76
2022/04/15 12:40:01;;;;;;;6.77;6.07;;;20.50;99.90;;;;;;5069346;28;20230;-80
2022/04/15 12:42:29;;;;;;;6.63;6.03;;;20.50;99.90;;;;;;5068645;28;20653;-79
2022/04/15 12:44:56;;;;;;;5.10;4.53;;;20.60;99.90;;;;;;5077068;28;20200;-79
2022/04/15 12:47:26;;;;;;;4.90;4.27;;;20.70;99.90;;;;;;5071649;28;20241;-80
2022/04/15 12:49:53;;;;;;;6.70;4.90;;;20.90;99.90;;;;;;5069795;28;20191;-78
2022/04/15 12:52:20;;;;;;;4.90;4.40;;;21.10;99.90;;;;;;5074935;28;20252;-79
2022/04/15 12:55:03;;;;;;;7.10;6.50;;;21.30;99.90;;;;;;5084346;28;20224;-79
2022/04/15 12:57:31;;;;;;;6.10;5.50;;;21.10;99.90;;;;;;5085045;28;20686;-78